createdAt,value
2022-07-28T00:01:11.945Z,15.90
2022-07-28T00:03:40.582Z,15.90
2022-07-28T00:06:07.595Z,15.90
2022-07-28T00:08:34.534Z,15.90
2022-07-28T00:11:01.532Z,15.90
2022-07-28T00:13:28.447Z,15.90
2022-07-28T00:15:55.405Z,15.90
2022-07-28T00:18:22.306Z,15.90
2022-07-28T00:20:49.228Z,15.90
2022-07-28T00:23:16.218Z,15.90
2022-07-28T00:25:45.827Z,15.90
2022-07-28T00:28:12.678Z,15.80
2022-07-28T00:30:39.623Z,15.80
2022-07-28T00:33:06.651Z,15.80
2022-07-28T00:35:33.657Z,15.80
2022-07-28T00:38:01.241Z,15.70
2022-07-28T00:40:47.789Z,15.70
2022-07-28T00:43:15.297Z,15.70
2022-07-28T00:45:42.639Z,15.60
2022-07-28T00:48:09.580Z,15.60
2022-07-28T00:50:39.661Z,15.60
2022-07-28T00:53:07.461Z,15.60
2022-07-28T00:56:03.491Z,15.60
2022-07-28T00:58:23.162Z,15.60
2022-07-28T01:00:50.193Z,15.60
2022-07-28T01:03:17.271Z,15.60
2022-07-28T01:06:10.224Z,15.60
2022-07-28T01:08:49.227Z,15.60
2022-07-28T01:11:28.052Z,15.50
2022-07-28T01:14:23.292Z,15.50
2022-07-28T01:16:56.580Z,15.50
2022-07-28T01:19:35.639Z,15.40
2022-07-28T01:22:04.819Z,15.40
2022-07-28T01:24:41.247Z,15.30
2022-07-28T01:27:38.605Z,15.30
2022-07-28T01:30:44.019Z,15.30
2022-07-28T01:33:32.019Z,15.20
2022-07-28T01:36:06.743Z,15.10
2022-07-28T01:38:35.390Z,15.10
2022-07-28T01:41:04.023Z,15.10
2022-07-28T01:43:36.683Z,15.00
2022-07-28T01:46:03.697Z,15.00
2022-07-28T01:48:32.870Z,14.90
2022-07-28T01:51:01.653Z,14.80
2022-07-28T01:53:37.794Z,14.80
2022-07-28T01:56:07.553Z,14.80
2022-07-28T01:58:35.397Z,14.80
2022-07-28T02:01:04.808Z,14.70
2022-07-28T02:03:34.651Z,14.70
2022-07-28T02:06:05.178Z,14.70
2022-07-28T02:08:35.109Z,14.70
2022-07-28T02:11:20.798Z,14.60
2022-07-28T02:13:49.403Z,14.60
2022-07-28T02:16:20.951Z,14.60
2022-07-28T02:18:50.215Z,14.50
2022-07-28T02:21:20.786Z,14.50
2022-07-28T02:23:49.535Z,14.50
2022-07-28T02:26:18.760Z,14.40
2022-07-28T02:28:52.694Z,14.40
2022-07-28T02:31:25.970Z,14.40
2022-07-28T02:34:02.295Z,14.30
2022-07-28T02:36:37.854Z,14.30
2022-07-28T02:39:21.202Z,14.30
2022-07-28T02:41:55.422Z,14.30
2022-07-28T02:44:28.722Z,14.20
2022-07-28T02:46:58.299Z,14.20
2022-07-28T02:49:31.302Z,14.20
2022-07-28T02:52:00.584Z,14.20
2022-07-28T02:54:30.009Z,14.20
2022-07-28T02:56:59.139Z,14.10
2022-07-28T02:59:28.291Z,14.20
2022-07-28T03:01:57.017Z,14.10
2022-07-28T03:04:43.796Z,14.20
2022-07-28T03:07:11.341Z,14.10
2022-07-28T03:09:41.680Z,14.10
2022-07-28T03:12:12.201Z,14.10
2022-07-28T03:14:39.457Z,14.10
2022-07-28T03:17:06.654Z,14.10
2022-07-28T03:19:34.196Z,14.10
2022-07-28T03:22:01.704Z,14.10
2022-07-28T03:24:32.471Z,14.10
2022-07-28T03:27:20.737Z,14.10
2022-07-28T03:29:54.054Z,14.10
2022-07-28T03:32:23.861Z,14.10
2022-07-28T03:34:52.425Z,14.10
2022-07-28T03:37:27.526Z,14.10
2022-07-28T03:39:57.263Z,14.10
2022-07-28T03:42:25.931Z,14.10
2022-07-28T03:44:54.074Z,14.10
2022-07-28T03:47:24.653Z,14.00
2022-07-28T03:49:51.859Z,14.10
2022-07-28T03:52:19.455Z,14.10
2022-07-28T03:54:46.385Z,14.00
2022-07-28T03:57:14.326Z,14.00
2022-07-28T03:59:41.343Z,14.00
2022-07-28T04:02:08.401Z,14.00
2022-07-28T04:04:35.477Z,14.00
2022-07-28T04:07:02.416Z,14.00
2022-07-28T04:09:29.435Z,14.00
2022-07-28T04:11:56.452Z,14.10
2022-07-28T04:14:23.663Z,14.10
2022-07-28T04:16:51.089Z,14.10
2022-07-28T04:19:17.968Z,14.10
2022-07-28T04:21:45.065Z,14.10
2022-07-28T04:24:12.041Z,14.10
2022-07-28T04:26:39.091Z,14.10
2022-07-28T04:29:06.126Z,14.20
2022-07-28T04:31:33.027Z,14.20
2022-07-28T04:34:00.336Z,14.20
2022-07-28T04:36:27.552Z,14.20
2022-07-28T04:38:54.472Z,14.20
2022-07-28T04:41:21.462Z,14.30
2022-07-28T04:43:50.570Z,14.30
2022-07-28T04:46:17.512Z,14.30
2022-07-28T04:48:45.410Z,14.30
2022-07-28T04:51:12.440Z,14.40
2022-07-28T04:53:39.307Z,14.40
2022-07-28T04:56:06.432Z,14.40
2022-07-28T04:58:33.858Z,14.40
2022-07-28T05:01:00.990Z,14.50
2022-07-28T05:03:30.505Z,14.50
2022-07-28T05:06:01.292Z,14.50
2022-07-28T05:08:28.472Z,14.50
2022-07-28T05:10:56.461Z,14.60
2022-07-28T05:13:23.836Z,14.70
2022-07-28T05:15:51.303Z,14.70
2022-07-28T05:18:21.429Z,14.80
2022-07-28T05:20:48.354Z,14.80
2022-07-28T05:23:19.624Z,14.90
2022-07-28T05:25:46.512Z,14.90
2022-07-28T05:28:13.378Z,14.90
2022-07-28T05:30:40.234Z,15.00
2022-07-28T05:33:07.124Z,15.00
2022-07-28T05:35:34.059Z,15.00
2022-07-28T05:38:01.026Z,15.00
2022-07-28T05:40:30.871Z,15.10
2022-07-28T05:42:57.749Z,15.10
2022-07-28T05:45:24.777Z,15.20
2022-07-28T05:47:53.166Z,15.20
2022-07-28T05:50:25.219Z,15.30
2022-07-28T05:52:52.446Z,15.40
2022-07-28T05:55:19.844Z,15.40
2022-07-28T05:57:47.069Z,15.50
2022-07-28T06:00:17.088Z,15.60
2022-07-28T06:02:49.762Z,15.60
2022-07-28T06:05:18.824Z,15.80
2022-07-28T06:07:48.503Z,15.90
2022-07-28T06:10:17.671Z,16.00
2022-07-28T06:12:52.116Z,16.10
2022-07-28T06:15:22.252Z,16.20
2022-07-28T06:17:52.516Z,16.30
2022-07-28T06:20:21.076Z,16.40
2022-07-28T06:22:53.156Z,16.50
2022-07-28T06:25:28.350Z,16.50
2022-07-28T06:28:00.293Z,16.60
2022-07-28T06:30:27.825Z,16.70
2022-07-28T06:32:55.624Z,16.80
2022-07-28T06:35:22.749Z,16.80
2022-07-28T06:37:52.394Z,16.80
2022-07-28T06:40:21.059Z,16.90
2022-07-28T06:42:49.528Z,17.00
2022-07-28T06:45:19.804Z,17.10
2022-07-28T06:47:52.725Z,17.30
2022-07-28T06:50:25.887Z,17.40
2022-07-28T06:52:55.545Z,17.50
2022-07-28T06:55:22.633Z,17.60
2022-07-28T06:57:49.551Z,17.60
2022-07-28T07:00:16.801Z,17.60
2022-07-28T07:02:43.940Z,17.70
2022-07-28T07:05:12.655Z,17.70
2022-07-28T07:07:43.122Z,17.60
2022-07-28T07:10:11.194Z,17.70
2022-07-28T07:12:38.358Z,17.70
2022-07-28T07:15:06.276Z,17.70
2022-07-28T07:17:33.311Z,17.80
2022-07-28T07:20:00.189Z,17.80
2022-07-28T07:22:27.202Z,17.90
2022-07-28T07:24:57.079Z,17.90
2022-07-28T07:27:24.882Z,18.00
2022-07-28T07:29:55.358Z,18.10
2022-07-28T07:32:22.289Z,18.20
2022-07-28T07:34:49.488Z,18.40
2022-07-28T07:37:18.672Z,18.50
2022-07-28T07:39:45.530Z,18.60
2022-07-28T07:42:12.429Z,18.70
2022-07-28T07:44:39.350Z,18.80
2022-07-28T07:47:11.625Z,18.90
2022-07-28T07:49:45.242Z,18.90
2022-07-28T07:52:13.743Z,18.80
2022-07-28T07:54:40.855Z,18.80
2022-07-28T07:57:07.813Z,18.80
2022-07-28T07:59:34.828Z,18.80
2022-07-28T08:02:02.158Z,18.90
2022-07-28T08:04:29.390Z,18.90
2022-07-28T08:06:56.453Z,19.00
2022-07-28T08:09:23.677Z,19.20
2022-07-28T08:11:50.929Z,19.30
2022-07-28T08:14:18.458Z,19.30
2022-07-28T08:16:45.676Z,19.40
2022-07-28T08:19:12.592Z,19.30
2022-07-28T08:21:39.490Z,19.30
2022-07-28T08:24:06.906Z,19.30
2022-07-28T08:26:33.838Z,19.30
2022-07-28T08:29:00.731Z,19.40
2022-07-28T08:31:27.665Z,19.40
2022-07-28T08:33:55.433Z,19.50
2022-07-28T08:36:22.856Z,19.70
2022-07-28T08:38:50.190Z,19.80
2022-07-28T08:41:25.960Z,19.80
2022-07-28T08:44:03.782Z,19.90
2022-07-28T08:46:38.650Z,20.00
2022-07-28T08:49:08.779Z,20.20
2022-07-28T08:51:37.480Z,20.20
2022-07-28T08:54:05.958Z,20.40
2022-07-28T08:56:33.320Z,20.50
2022-07-28T08:59:01.946Z,20.60
2022-07-28T09:01:38.737Z,20.80
2022-07-28T09:04:08.763Z,20.90
2022-07-28T09:06:42.198Z,21.10
2022-07-28T09:09:10.157Z,21.10
2022-07-28T09:11:37.864Z,21.30
2022-07-28T09:14:05.819Z,21.30
2022-07-28T09:16:33.234Z,21.20
2022-07-28T09:19:00.141Z,21.10
2022-07-28T09:21:27.335Z,21.10
2022-07-28T09:23:54.343Z,21.10
2022-07-28T09:26:22.147Z,21.10
2022-07-28T09:28:55.040Z,21.10
2022-07-28T09:31:24.740Z,21.10
2022-07-28T09:34:01.203Z,20.90
2022-07-28T09:36:38.751Z,20.80
2022-07-28T09:39:05.884Z,20.90
2022-07-28T09:41:58.266Z,21.00
2022-07-28T09:44:27.474Z,21.30
2022-07-28T09:46:57.544Z,21.40
2022-07-28T09:49:45.063Z,21.60
2022-07-28T09:52:12.238Z,21.80
2022-07-28T09:54:41.236Z,21.90
2022-07-28T09:57:11.719Z,21.80
2022-07-28T09:59:48.422Z,22.00
2022-07-28T10:02:31.656Z,22.20
2022-07-28T10:05:02.676Z,22.40
2022-07-28T10:07:30.535Z,22.50
2022-07-28T10:10:09.069Z,22.60
2022-07-28T10:12:37.936Z,22.70
2022-07-28T10:15:46.728Z,22.80
2022-07-28T10:18:17.735Z,22.90
2022-07-28T10:20:45.162Z,23.00
2022-07-28T10:23:14.360Z,23.10
2022-07-28T10:25:44.316Z,23.10
2022-07-28T10:28:16.714Z,23.20
2022-07-28T10:30:45.062Z,23.30
2022-07-28T10:33:17.369Z,23.10
2022-07-28T10:35:54.304Z,23.00
2022-07-28T10:38:22.648Z,23.00
2022-07-28T10:40:52.165Z,23.20
2022-07-28T10:43:19.987Z,23.40
2022-07-28T10:46:05.107Z,23.50
2022-07-28T10:48:33.830Z,23.60
2022-07-28T10:51:01.643Z,23.70
2022-07-28T10:53:51.354Z,23.80
2022-07-28T10:56:43.812Z,23.80
2022-07-28T10:59:40.056Z,23.80
2022-07-28T11:02:07.191Z,23.90
2022-07-28T11:04:47.989Z,23.90
2022-07-28T11:07:19.879Z,23.90
2022-07-28T11:09:50.171Z,23.90
2022-07-28T11:12:48.306Z,24.00
2022-07-28T11:15:36.188Z,24.20
2022-07-28T11:18:06.757Z,24.20
2022-07-28T11:20:56.443Z,24.20
2022-07-28T11:23:46.220Z,24.40
2022-07-28T11:26:19.652Z,24.50
2022-07-28T11:29:05.685Z,24.50
2022-07-28T11:31:44.478Z,24.70
2022-07-28T11:34:15.576Z,24.90
2022-07-28T11:36:58.103Z,24.90
2022-07-28T11:39:43.475Z,25.00
2022-07-28T11:42:29.198Z,25.10
2022-07-28T11:45:18.153Z,25.30
2022-07-28T11:47:45.256Z,25.40
2022-07-28T11:50:13.781Z,25.30
2022-07-28T11:52:53.304Z,25.30
2022-07-28T11:55:20.517Z,25.40
2022-07-28T11:58:07.717Z,25.40
2022-07-28T12:00:34.684Z,25.60
2022-07-28T12:03:05.467Z,25.70
2022-07-28T12:05:34.297Z,25.70
2022-07-28T12:08:08.735Z,25.80
2022-07-28T12:10:53.988Z,26.20
2022-07-28T12:13:27.576Z,26.70
2022-07-28T12:15:54.602Z,27.20
2022-07-28T12:18:24.738Z,27.50
2022-07-28T12:20:53.736Z,27.90
2022-07-28T12:23:34.970Z,28.10
2022-07-28T12:26:15.375Z,28.40
2022-07-28T12:28:50.302Z,28.30
2022-07-28T12:31:17.483Z,28.10
2022-07-28T12:33:44.421Z,27.70
2022-07-28T12:36:11.840Z,27.10
2022-07-28T12:38:39.161Z,27.10
2022-07-28T12:41:16.610Z,27.70
2022-07-28T12:43:54.408Z,28.40
2022-07-28T12:46:28.485Z,28.90
2022-07-28T12:48:57.512Z,29.10
2022-07-28T12:51:36.312Z,29.70
2022-07-28T12:54:04.951Z,30.10
2022-07-28T12:56:43.593Z,30.10
2022-07-28T12:59:13.049Z,29.80
2022-07-28T13:01:54.741Z,29.60
2022-07-28T13:04:46.850Z,30.30
2022-07-28T13:07:20.373Z,30.80
2022-07-28T13:09:59.990Z,30.90
2022-07-28T13:12:28.324Z,30.80
2022-07-28T13:14:57.905Z,30.80
2022-07-28T13:17:26.968Z,31.10
2022-07-28T13:20:05.930Z,31.40
2022-07-28T13:22:33.377Z,31.90
2022-07-28T13:25:01.108Z,31.40
2022-07-28T13:27:28.737Z,30.30
2022-07-28T13:29:55.860Z,29.50
2022-07-28T13:32:22.902Z,29.70
2022-07-28T13:34:50.333Z,29.50
2022-07-28T13:37:18.033Z,28.90
2022-07-28T13:39:52.166Z,28.40
2022-07-28T13:42:21.326Z,27.90
2022-07-28T13:44:50.649Z,27.70
2022-07-28T13:47:21.207Z,27.70
2022-07-28T13:49:48.209Z,28.00
2022-07-28T13:52:32.885Z,29.30
2022-07-28T13:55:04.283Z,30.70
2022-07-28T13:57:36.683Z,31.90
2022-07-28T14:00:07.917Z,32.00
2022-07-28T14:02:36.118Z,31.60
2022-07-28T14:05:04.471Z,30.80
2022-07-28T14:07:31.611Z,30.00
2022-07-28T14:09:58.627Z,29.60
2022-07-28T14:12:26.432Z,29.70
2022-07-28T14:14:53.442Z,29.60
2022-07-28T14:20:10.933Z,28.70
2022-07-28T14:22:38.281Z,28.50
2022-07-28T14:25:05.562Z,29.00
2022-07-28T14:27:32.709Z,29.70
2022-07-28T14:29:59.691Z,30.50
2022-07-28T14:32:30.834Z,30.20
2022-07-28T14:34:57.773Z,29.40
2022-07-28T14:37:25.373Z,28.80
2022-07-28T14:39:52.222Z,28.40
2022-07-28T14:42:19.362Z,28.70
2022-07-28T14:44:46.351Z,29.20
2022-07-28T14:47:15.573Z,29.30
2022-07-28T14:49:57.940Z,29.10
2022-07-28T14:52:27.537Z,28.70
2022-07-28T14:54:54.987Z,28.40
2022-07-28T14:57:25.005Z,28.10
2022-07-28T15:00:11.279Z,27.70
2022-07-28T15:02:38.541Z,27.60
2022-07-28T15:05:06.806Z,28.00
2022-07-28T15:07:33.772Z,29.00
2022-07-28T15:10:00.975Z,29.90
2022-07-28T15:12:28.115Z,30.90
2022-07-28T15:14:55.077Z,32.20
2022-07-28T15:17:22.020Z,32.90
2022-07-28T15:19:49.073Z,33.10
2022-07-28T15:22:15.950Z,32.50
2022-07-28T15:24:45.064Z,32.00
2022-07-28T15:27:22.194Z,31.50
2022-07-28T15:29:52.420Z,31.20
2022-07-28T15:32:27.177Z,31.10
2022-07-28T15:34:55.698Z,30.90
2022-07-28T15:37:23.142Z,30.90
2022-07-28T15:39:50.090Z,31.40
2022-07-28T15:42:17.232Z,32.10
2022-07-28T15:44:44.531Z,32.70
2022-07-28T15:47:11.476Z,32.90
2022-07-28T15:49:38.406Z,32.60
2022-07-28T15:52:05.619Z,32.40
2022-07-28T15:54:32.691Z,32.60
2022-07-28T15:56:59.590Z,32.60
2022-07-28T15:59:49.433Z,32.20
2022-07-28T16:02:17.545Z,31.80
2022-07-28T16:04:49.993Z,31.50
2022-07-28T16:07:24.817Z,31.30
2022-07-28T16:09:54.966Z,31.00
2022-07-28T16:12:24.895Z,30.60
2022-07-28T16:14:55.370Z,30.10
2022-07-28T16:17:23.049Z,29.40
2022-07-28T16:19:51.740Z,28.80
2022-07-28T16:22:19.921Z,28.20
2022-07-28T16:24:47.845Z,27.80
2022-07-28T16:27:15.247Z,27.60
2022-07-28T16:29:42.937Z,27.40
2022-07-28T16:32:10.408Z,27.00
2022-07-28T16:34:37.476Z,26.70
2022-07-28T16:37:05.095Z,26.50
2022-07-28T16:39:34.271Z,26.30
2022-07-28T16:42:02.253Z,26.10
2022-07-28T16:44:29.383Z,25.90
2022-07-28T16:46:56.866Z,25.80
2022-07-28T16:49:24.831Z,25.60
2022-07-28T16:51:51.789Z,25.50
2022-07-28T16:54:19.421Z,25.40
2022-07-28T16:56:46.763Z,25.30
2022-07-28T16:59:14.085Z,25.20
2022-07-28T17:01:45.830Z,25.10
2022-07-28T17:04:14.691Z,25.00
2022-07-28T17:06:42.109Z,25.00
2022-07-28T17:09:09.432Z,24.90
2022-07-28T17:11:36.438Z,24.90
2022-07-28T17:14:04.333Z,24.80
2022-07-28T17:16:31.462Z,24.70
2022-07-28T17:18:58.646Z,24.60
2022-07-28T17:21:26.234Z,24.60
2022-07-28T17:23:53.660Z,24.60
2022-07-28T17:29:08.845Z,24.50
2022-07-28T17:31:36.338Z,24.50
2022-07-28T17:34:03.519Z,24.40
2022-07-28T17:36:34.003Z,24.40
2022-07-28T17:39:01.247Z,24.40
2022-07-28T17:41:28.497Z,24.30
2022-07-28T17:43:55.562Z,24.30
2022-07-28T17:46:23.007Z,24.20
2022-07-28T17:48:53.946Z,24.20
2022-07-28T17:51:21.092Z,24.10
2022-07-28T17:53:48.896Z,24.20
2022-07-28T17:56:17.523Z,24.20
2022-07-28T17:58:45.548Z,24.20
2022-07-28T18:01:15.294Z,24.20
2022-07-28T18:03:59.078Z,24.10
2022-07-28T18:06:35.779Z,24.10
2022-07-28T18:09:07.421Z,24.00
2022-07-28T18:11:55.995Z,23.90
2022-07-28T18:14:29.416Z,23.80
2022-07-28T18:16:56.853Z,23.70
2022-07-28T18:19:23.808Z,23.60
2022-07-28T18:21:51.753Z,23.50
2022-07-28T18:24:21.710Z,23.40
2022-07-28T18:26:53.013Z,23.30
2022-07-28T18:29:21.504Z,23.20
2022-07-28T18:31:52.746Z,23.10
2022-07-28T18:34:20.837Z,23.10
2022-07-28T18:36:52.316Z,23.00
2022-07-28T18:39:19.330Z,22.90
2022-07-28T18:41:47.760Z,22.90
2022-07-28T18:44:19.205Z,22.80
2022-07-28T18:46:49.939Z,22.80
2022-07-28T18:49:17.040Z,22.70
2022-07-28T18:51:45.686Z,22.70
2022-07-28T18:54:23.181Z,22.70
2022-07-28T18:56:54.233Z,22.60
2022-07-28T18:59:22.016Z,22.60
2022-07-28T19:01:51.542Z,22.50
2022-07-28T19:04:19.984Z,22.40
2022-07-28T19:06:46.910Z,22.40
2022-07-28T19:09:14.013Z,22.30
2022-07-28T19:11:45.650Z,22.30
2022-07-28T19:14:13.800Z,22.20
2022-07-28T19:16:40.941Z,22.20
2022-07-28T19:19:08.061Z,22.00
2022-07-28T19:21:35.469Z,22.00
2022-07-28T19:24:02.457Z,21.90
2022-07-28T19:26:32.156Z,21.90
2022-07-28T19:28:59.062Z,21.80
2022-07-28T19:31:28.845Z,21.70
2022-07-28T19:33:55.955Z,21.70
2022-07-28T19:36:22.903Z,21.60
2022-07-28T19:38:49.937Z,21.60
2022-07-28T19:41:16.890Z,21.50
2022-07-28T19:43:43.891Z,21.50
2022-07-28T19:46:11.140Z,21.50
2022-07-28T19:48:39.347Z,21.40
2022-07-28T19:51:06.590Z,21.40
2022-07-28T19:53:34.492Z,21.30
2022-07-28T19:56:03.238Z,21.30
2022-07-28T19:58:34.225Z,21.20
2022-07-28T20:01:03.249Z,21.20
2022-07-28T20:04:01.445Z,21.20
2022-07-28T20:06:18.767Z,21.10
2022-07-28T20:08:53.166Z,21.10
2022-07-28T20:11:20.184Z,21.10
2022-07-28T20:13:48.075Z,21.10
2022-07-28T20:16:15.369Z,21.00
2022-07-28T20:18:42.323Z,21.00
2022-07-28T20:21:09.268Z,20.90
2022-07-28T20:23:38.521Z,20.90
2022-07-28T20:26:05.435Z,20.90
2022-07-28T20:28:32.398Z,20.80
2022-07-28T20:30:59.961Z,20.70
2022-07-28T20:33:27.050Z,20.70
2022-07-28T20:35:54.258Z,20.70
2022-07-28T20:38:23.378Z,20.60
2022-07-28T20:40:51.401Z,20.60
2022-07-28T20:43:21.257Z,20.50
2022-07-28T20:45:51.261Z,20.50
2022-07-28T20:48:18.390Z,20.50
2022-07-28T20:50:45.350Z,20.40
2022-07-28T20:53:13.029Z,20.40
2022-07-28T20:55:39.992Z,20.40
2022-07-28T20:58:06.858Z,20.30
2022-07-28T21:00:34.688Z,20.30
2022-07-28T21:03:01.725Z,20.20
2022-07-28T21:05:35.848Z,20.20
2022-07-28T21:08:06.511Z,20.10
2022-07-28T21:10:36.835Z,20.10
2022-07-28T21:13:03.922Z,20.00
2022-07-28T21:15:30.987Z,20.00
2022-07-28T21:17:59.109Z,20.00
2022-07-28T21:20:26.187Z,19.90
2022-07-28T21:22:53.182Z,19.80
2022-07-28T21:25:20.399Z,19.80
2022-07-28T21:28:05.707Z,19.80
2022-07-28T21:30:32.979Z,19.70
2022-07-28T21:32:59.945Z,19.70
2022-07-28T21:35:27.231Z,19.60
2022-07-28T21:37:54.446Z,19.60
2022-07-28T21:40:21.414Z,19.60
2022-07-28T21:42:51.025Z,19.50
2022-07-28T21:45:18.562Z,19.50
2022-07-28T21:47:45.433Z,19.50
2022-07-28T21:50:12.933Z,19.40
2022-07-28T21:52:39.967Z,19.40
2022-07-28T21:55:09.139Z,19.30
2022-07-28T21:57:36.296Z,19.30
2022-07-28T22:00:06.665Z,19.30
2022-07-28T22:02:33.650Z,19.30
2022-07-28T22:05:01.178Z,19.30
2022-07-28T22:07:28.296Z,19.30
2022-07-28T22:09:55.283Z,19.30
2022-07-28T22:12:22.861Z,19.30
2022-07-28T22:14:49.752Z,19.30
2022-07-28T22:17:17.450Z,19.20
2022-07-28T22:19:44.499Z,19.20
2022-07-28T22:22:11.411Z,19.10
2022-07-28T22:24:38.421Z,19.10
2022-07-28T22:27:05.611Z,19.10
2022-07-28T22:29:32.521Z,19.10
2022-07-28T22:31:59.759Z,19.00
2022-07-28T22:34:29.017Z,19.00
2022-07-28T22:36:56.293Z,19.00
2022-07-28T22:39:23.209Z,19.00
2022-07-28T22:41:50.185Z,19.00
2022-07-28T22:44:17.534Z,18.90
2022-07-28T22:46:44.765Z,18.90
2022-07-28T22:49:11.755Z,18.90
2022-07-28T22:51:38.757Z,18.90
2022-07-28T22:54:05.835Z,18.90
2022-07-28T22:56:34.872Z,18.90
2022-07-28T22:59:04.869Z,18.90
2022-07-28T23:01:32.012Z,18.90
2022-07-28T23:03:59.020Z,18.80
2022-07-28T23:06:26.723Z,18.90
2022-07-28T23:08:53.742Z,18.80
2022-07-28T23:11:20.827Z,18.90
2022-07-28T23:13:47.816Z,18.90
2022-07-28T23:16:17.048Z,18.80
2022-07-28T23:18:44.862Z,18.80
2022-07-28T23:21:14.246Z,18.80
2022-07-28T23:23:41.373Z,18.80
2022-07-28T23:26:08.329Z,18.70
2022-07-28T23:28:36.470Z,18.70
2022-07-28T23:31:04.645Z,18.60
2022-07-28T23:33:54.620Z,18.70
2022-07-28T23:36:26.914Z,18.70
2022-07-28T23:38:58.344Z,18.70
2022-07-28T23:41:26.641Z,18.70
2022-07-28T23:43:53.824Z,18.60
2022-07-28T23:46:21.226Z,18.60
2022-07-28T23:48:49.263Z,18.60
2022-07-28T23:51:16.282Z,18.60
2022-07-28T23:53:43.267Z,18.50
2022-07-28T23:56:10.308Z,18.50
2022-07-28T23:58:37.242Z,18.50
